sensor_id;sensor_type;location;lat;lon;timestamp;P1;durP1;ratioP1;P2;durP2;ratioP2
7432;SDS011;32233;49.500;7.764;2023-03-01T00:00:39;14.27;;;9.13;;
7432;SDS011;32233;49.500;7.764;2023-03-01T00:03:05;16.93;;;9.50;;
7432;SDS011;32233;49.500;7.764;2023-03-01T00:05:32;15.80;;;9.80;;
7432;SDS011;32233;49.500;7.764;2023-03-01T00:07:59;15.57;;;10.20;;
7432;SDS011;32233;49.500;7.764;2023-03-01T00:10:25;14.97;;;10.40;;
7432;SDS011;32233;49.500;7.764;2023-03-01T00:12:52;18.93;;;10.63;;
7432;SDS011;32233;49.500;7.764;2023-03-01T00:15:19;16.73;;;10.33;;
7432;SDS011;32233;49.500;7.764;2023-03-01T00:17:45;17.23;;;10.03;;
7432;SDS011;32233;49.500;7.764;2023-03-01T00:20:12;16.37;;;9.90;;
7432;SDS011;32233;49.500;7.764;2023-03-01T00:22:38;17.53;;;10.37;;
7432;SDS011;32233;49.500;7.764;2023-03-01T00:25:05;16.20;;;10.33;;
7432;SDS011;32233;49.500;7.764;2023-03-01T00:27:32;17.50;;;10.07;;
7432;SDS011;32233;49.500;7.764;2023-03-01T00:29:58;15.87;;;10.87;;
7432;SDS011;32233;49.500;7.764;2023-03-01T00:32:25;17.60;;;11.10;;
7432;SDS011;32233;49.500;7.764;2023-03-01T00:34:52;16.33;;;10.30;;
7432;SDS011;32233;49.500;7.764;2023-03-01T00:37:21;16.33;;;10.23;;
7432;SDS011;32233;49.500;7.764;2023-03-01T00:39:49;17.20;;;10.47;;
7432;SDS011;32233;49.500;7.764;2023-03-01T00:42:16;18.57;;;11.10;;
7432;SDS011;32233;49.500;7.764;2023-03-01T00:44:43;16.10;;;10.13;;
7432;SDS011;32233;49.500;7.764;2023-03-01T00:47:09;17.97;;;10.70;;
7432;SDS011;32233;49.500;7.764;2023-03-01T00:49:35;17.00;;;10.43;;
7432;SDS011;32233;49.500;7.764;2023-03-01T00:52:02;19.20;;;10.83;;
7432;SDS011;32233;49.500;7.764;2023-03-01T00:54:29;19.57;;;11.20;;
7432;SDS011;32233;49.500;7.764;2023-03-01T00:56:55;17.77;;;10.87;;
7432;SDS011;32233;49.500;7.764;2023-03-01T00:59:21;17.80;;;11.00;;
7432;SDS011;32233;49.500;7.764;2023-03-01T01:01:48;18.90;;;11.97;;
7432;SDS011;32233;49.500;7.764;2023-03-01T01:04:15;19.40;;;11.07;;
7432;SDS011;32233;49.500;7.764;2023-03-01T01:06:43;18.10;;;10.67;;
7432;SDS011;32233;49.500;7.764;2023-03-01T01:09:12;22.17;;;11.73;;
7432;SDS011;32233;49.500;7.764;2023-03-01T01:11:45;17.43;;;11.27;;
7432;SDS011;32233;49.500;7.764;2023-03-01T01:14:14;17.77;;;10.97;;
7432;SDS011;32233;49.500;7.764;2023-03-01T01:16:41;18.37;;;11.87;;
7432;SDS011;32233;49.500;7.764;2023-03-01T01:19:07;18.97;;;11.23;;
7432;SDS011;32233;49.500;7.764;2023-03-01T01:21:36;18.60;;;11.83;;
7432;SDS011;32233;49.500;7.764;2023-03-01T01:24:03;18.77;;;12.03;;
7432;SDS011;32233;49.500;7.764;2023-03-01T01:26:31;19.17;;;11.70;;
7432;SDS011;32233;49.500;7.764;2023-03-01T01:29:00;18.07;;;10.63;;
7432;SDS011;32233;49.500;7.764;2023-03-01T01:31:28;22.80;;;11.93;;
7432;SDS011;32233;49.500;7.764;2023-03-01T01:33:56;20.70;;;12.53;;
7432;SDS011;32233;49.500;7.764;2023-03-01T01:36:23;23.57;;;12.33;;
7432;SDS011;32233;49.500;7.764;2023-03-01T01:38:50;18.70;;;12.03;;
7432;SDS011;32233;49.500;7.764;2023-03-01T01:41:17;18.40;;;12.47;;
7432;SDS011;32233;49.500;7.764;2023-03-01T01:44:28;19.70;;;12.17;;
7432;SDS011;32233;49.500;7.764;2023-03-01T01:46:41;23.30;;;12.30;;
7432;SDS011;32233;49.500;7.764;2023-03-01T01:52:18;18.80;;;11.73;;
7432;SDS011;32233;49.500;7.764;2023-03-01T01:54:54;18.77;;;11.40;;
7432;SDS011;32233;49.500;7.764;2023-03-01T01:57:32;22.23;;;12.23;;
7432;SDS011;32233;49.500;7.764;2023-03-01T02:00:04;24.70;;;12.87;;
7432;SDS011;32233;49.500;7.764;2023-03-01T02:02:38;24.00;;;12.40;;
7432;SDS011;32233;49.500;7.764;2023-03-01T02:05:18;25.33;;;13.10;;
7432;SDS011;32233;49.500;7.764;2023-03-01T02:07:52;20.77;;;12.43;;
7432;SDS011;32233;49.500;7.764;2023-03-01T02:10:21;22.40;;;12.40;;
7432;SDS011;32233;49.500;7.764;2023-03-01T02:12:49;26.03;;;12.93;;
7432;SDS011;32233;49.500;7.764;2023-03-01T02:15:17;22.13;;;13.23;;
7432;SDS011;32233;49.500;7.764;2023-03-01T02:17:43;19.90;;;12.27;;
7432;SDS011;32233;49.500;7.764;2023-03-01T02:22:53;21.20;;;12.30;;
7432;SDS011;32233;49.500;7.764;2023-03-01T02:30:26;22.83;;;12.47;;
7432;SDS011;32233;49.500;7.764;2023-03-01T02:32:55;22.27;;;12.07;;
7432;SDS011;32233;49.500;7.764;2023-03-01T02:35:32;20.73;;;12.97;;
7432;SDS011;32233;49.500;7.764;2023-03-01T02:38:02;21.60;;;13.07;;
7432;SDS011;32233;49.500;7.764;2023-03-01T02:40:33;19.73;;;12.63;;
7432;SDS011;32233;49.500;7.764;2023-03-01T02:43:00;25.40;;;13.87;;
7432;SDS011;32233;49.500;7.764;2023-03-01T02:45:30;26.03;;;13.60;;
7432;SDS011;32233;49.500;7.764;2023-03-01T02:47:57;25.90;;;13.27;;
7432;SDS011;32233;49.500;7.764;2023-03-01T02:55:35;23.40;;;13.07;;
7432;SDS011;32233;49.500;7.764;2023-03-01T02:58:02;24.63;;;12.70;;
7432;SDS011;32233;49.500;7.764;2023-03-01T03:00:38;23.97;;;13.33;;
7432;SDS011;32233;49.500;7.764;2023-03-01T03:03:15;23.57;;;13.47;;
7432;SDS011;32233;49.500;7.764;2023-03-01T03:05:45;22.03;;;12.90;;
7432;SDS011;32233;49.500;7.764;2023-03-01T03:08:13;21.53;;;12.67;;
7432;SDS011;32233;49.500;7.764;2023-03-01T03:10:42;26.07;;;13.30;;
7432;SDS011;32233;49.500;7.764;2023-03-01T03:13:12;26.60;;;13.43;;
7432;SDS011;32233;49.500;7.764;2023-03-01T03:15:41;22.30;;;12.90;;
7432;SDS011;32233;49.500;7.764;2023-03-01T03:18:10;25.53;;;13.23;;
7432;SDS011;32233;49.500;7.764;2023-03-01T03:20:40;22.40;;;13.37;;
7432;SDS011;32233;49.500;7.764;2023-03-01T03:23:08;25.33;;;14.20;;
7432;SDS011;32233;49.500;7.764;2023-03-01T03:25:35;27.70;;;13.97;;
7432;SDS011;32233;49.500;7.764;2023-03-01T03:28:04;21.30;;;13.67;;
7432;SDS011;32233;49.500;7.764;2023-03-01T03:30:36;23.60;;;13.90;;
7432;SDS011;32233;49.500;7.764;2023-03-01T03:33:05;24.70;;;14.13;;
7432;SDS011;32233;49.500;7.764;2023-03-01T03:35:38;26.57;;;14.50;;
7432;SDS011;32233;49.500;7.764;2023-03-01T03:38:07;26.70;;;14.23;;
7432;SDS011;32233;49.500;7.764;2023-03-01T03:40:45;24.70;;;13.07;;
7432;SDS011;32233;49.500;7.764;2023-03-01T03:43:15;24.67;;;13.70;;
7432;SDS011;32233;49.500;7.764;2023-03-01T03:45:44;22.47;;;13.30;;
7432;SDS011;32233;49.500;7.764;2023-03-01T03:48:11;26.83;;;14.07;;
7432;SDS011;32233;49.500;7.764;2023-03-01T03:50:39;24.27;;;13.30;;
7432;SDS011;32233;49.500;7.764;2023-03-01T03:53:08;24.70;;;13.93;;
7432;SDS011;32233;49.500;7.764;2023-03-01T03:55:37;24.83;;;13.63;;
7432;SDS011;32233;49.500;7.764;2023-03-01T03:58:08;24.37;;;13.73;;
7432;SDS011;32233;49.500;7.764;2023-03-01T04:00:39;21.20;;;13.30;;
7432;SDS011;32233;49.500;7.764;2023-03-01T04:03:07;24.33;;;13.80;;
7432;SDS011;32233;49.500;7.764;2023-03-01T04:05:35;24.60;;;13.80;;
7432;SDS011;32233;49.500;7.764;2023-03-01T04:08:03;27.53;;;14.60;;
7432;SDS011;32233;49.500;7.764;2023-03-01T04:10:43;25.77;;;13.63;;
7432;SDS011;32233;49.500;7.764;2023-03-01T04:13:12;25.83;;;14.90;;
7432;SDS011;32233;49.500;7.764;2023-03-01T04:15:41;24.30;;;14.17;;
7432;SDS011;32233;49.500;7.764;2023-03-01T04:18:12;27.83;;;14.60;;
7432;SDS011;32233;49.500;7.764;2023-03-01T04:20:40;22.77;;;13.40;;
7432;SDS011;32233;49.500;7.764;2023-03-01T04:23:08;23.30;;;13.00;;
7432;SDS011;32233;49.500;7.764;2023-03-01T04:25:41;24.63;;;13.53;;
7432;SDS011;32233;49.500;7.764;2023-03-01T04:28:21;27.67;;;14.77;;
7432;SDS011;32233;49.500;7.764;2023-03-01T04:30:51;25.50;;;14.03;;
7432;SDS011;32233;49.500;7.764;2023-03-01T04:33:19;25.40;;;14.60;;
7432;SDS011;32233;49.500;7.764;2023-03-01T04:35:46;28.87;;;14.53;;
7432;SDS011;32233;49.500;7.764;2023-03-01T04:38:16;24.53;;;14.33;;
7432;SDS011;32233;49.500;7.764;2023-03-01T04:40:43;29.40;;;15.43;;
7432;SDS011;32233;49.500;7.764;2023-03-01T04:43:11;28.93;;;14.87;;
7432;SDS011;32233;49.500;7.764;2023-03-01T04:45:39;25.70;;;14.80;;
7432;SDS011;32233;49.500;7.764;2023-03-01T04:48:06;26.57;;;14.90;;
7432;SDS011;32233;49.500;7.764;2023-03-01T04:50:32;27.80;;;15.40;;
7432;SDS011;32233;49.500;7.764;2023-03-01T04:52:59;27.47;;;15.40;;
7432;SDS011;32233;49.500;7.764;2023-03-01T04:55:26;25.23;;;14.47;;
7432;SDS011;32233;49.500;7.764;2023-03-01T04:57:53;27.20;;;14.93;;
7432;SDS011;32233;49.500;7.764;2023-03-01T05:00:20;29.10;;;14.97;;
7432;SDS011;32233;49.500;7.764;2023-03-01T05:02:49;24.63;;;14.70;;
7432;SDS011;32233;49.500;7.764;2023-03-01T05:05:22;26.40;;;15.10;;
7432;SDS011;32233;49.500;7.764;2023-03-01T05:07:52;28.00;;;14.93;;
7432;SDS011;32233;49.500;7.764;2023-03-01T05:10:20;29.60;;;16.30;;
7432;SDS011;32233;49.500;7.764;2023-03-01T05:12:47;29.73;;;15.53;;
7432;SDS011;32233;49.500;7.764;2023-03-01T05:15:14;26.23;;;15.10;;
7432;SDS011;32233;49.500;7.764;2023-03-01T05:17:40;26.57;;;15.33;;
7432;SDS011;32233;49.500;7.764;2023-03-01T05:20:07;28.23;;;15.30;;
7432;SDS011;32233;49.500;7.764;2023-03-01T05:22:35;29.80;;;15.43;;
7432;SDS011;32233;49.500;7.764;2023-03-01T05:25:02;29.23;;;15.83;;
7432;SDS011;32233;49.500;7.764;2023-03-01T05:27:29;27.80;;;15.60;;
7432;SDS011;32233;49.500;7.764;2023-03-01T05:29:56;29.07;;;15.47;;
7432;SDS011;32233;49.500;7.764;2023-03-01T05:32:23;24.83;;;15.90;;
7432;SDS011;32233;49.500;7.764;2023-03-01T05:34:49;30.90;;;15.50;;
7432;SDS011;32233;49.500;7.764;2023-03-01T05:37:18;27.40;;;15.57;;
7432;SDS011;32233;49.500;7.764;2023-03-01T05:39:45;27.10;;;15.70;;
7432;SDS011;32233;49.500;7.764;2023-03-01T05:42:14;24.93;;;15.13;;
7432;SDS011;32233;49.500;7.764;2023-03-01T05:44:40;27.97;;;15.67;;
7432;SDS011;32233;49.500;7.764;2023-03-01T05:47:07;28.67;;;15.73;;
7432;SDS011;32233;49.500;7.764;2023-03-01T05:49:33;26.23;;;15.83;;
7432;SDS011;32233;49.500;7.764;2023-03-01T05:52:02;30.20;;;16.43;;
7432;SDS011;32233;49.500;7.764;2023-03-01T05:54:28;27.67;;;15.93;;
7432;SDS011;32233;49.500;7.764;2023-03-01T05:56:55;30.23;;;16.00;;
7432;SDS011;32233;49.500;7.764;2023-03-01T05:59:22;28.87;;;15.70;;
7432;SDS011;32233;49.500;7.764;2023-03-01T06:01:48;27.83;;;16.33;;
7432;SDS011;32233;49.500;7.764;2023-03-01T06:04:16;27.33;;;15.17;;
7432;SDS011;32233;49.500;7.764;2023-03-01T06:06:42;29.00;;;16.03;;
7432;SDS011;32233;49.500;7.764;2023-03-01T06:09:09;26.33;;;15.63;;
7432;SDS011;32233;49.500;7.764;2023-03-01T06:11:36;29.10;;;15.83;;
7432;SDS011;32233;49.500;7.764;2023-03-01T06:14:03;30.13;;;16.40;;
7432;SDS011;32233;49.500;7.764;2023-03-01T06:16:32;26.77;;;15.80;;
7432;SDS011;32233;49.500;7.764;2023-03-01T06:18:59;27.80;;;16.40;;
7432;SDS011;32233;49.500;7.764;2023-03-01T06:21:25;29.13;;;17.10;;
7432;SDS011;32233;49.500;7.764;2023-03-01T06:23:52;27.67;;;15.80;;
7432;SDS011;32233;49.500;7.764;2023-03-01T06:26:18;32.73;;;16.37;;
7432;SDS011;32233;49.500;7.764;2023-03-01T06:28:45;28.37;;;16.37;;
7432;SDS011;32233;49.500;7.764;2023-03-01T06:31:12;27.60;;;16.40;;
7432;SDS011;32233;49.500;7.764;2023-03-01T06:33:39;31.13;;;16.33;;
7432;SDS011;32233;49.500;7.764;2023-03-01T06:36:06;28.87;;;16.17;;
7432;SDS011;32233;49.500;7.764;2023-03-01T06:38:33;29.13;;;15.70;;
7432;SDS011;32233;49.500;7.764;2023-03-01T06:41:00;27.63;;;16.23;;
7432;SDS011;32233;49.500;7.764;2023-03-01T06:43:27;29.70;;;16.20;;
7432;SDS011;32233;49.500;7.764;2023-03-01T06:45:54;27.10;;;15.60;;
7432;SDS011;32233;49.500;7.764;2023-03-01T06:48:20;27.33;;;15.67;;
7432;SDS011;32233;49.500;7.764;2023-03-01T06:50:47;27.67;;;15.47;;
7432;SDS011;32233;49.500;7.764;2023-03-01T06:53:13;27.00;;;15.93;;
7432;SDS011;32233;49.500;7.764;2023-03-01T06:55:40;28.33;;;16.03;;
7432;SDS011;32233;49.500;7.764;2023-03-01T06:58:06;28.97;;;15.70;;
7432;SDS011;32233;49.500;7.764;2023-03-01T07:00:33;26.40;;;16.07;;
7432;SDS011;32233;49.500;7.764;2023-03-01T07:03:00;32.83;;;15.93;;
7432;SDS011;32233;49.500;7.764;2023-03-01T07:05:29;32.07;;;16.50;;
7432;SDS011;32233;49.500;7.764;2023-03-01T07:07:56;29.30;;;16.27;;
7432;SDS011;32233;49.500;7.764;2023-03-01T07:10:23;29.47;;;16.87;;
7432;SDS011;32233;49.500;7.764;2023-03-01T07:12:50;28.67;;;15.53;;
7432;SDS011;32233;49.500;7.764;2023-03-01T07:15:20;27.40;;;15.73;;
7432;SDS011;32233;49.500;7.764;2023-03-01T07:17:47;30.10;;;16.00;;
7432;SDS011;32233;49.500;7.764;2023-03-01T07:20:16;27.63;;;15.97;;
7432;SDS011;32233;49.500;7.764;2023-03-01T07:22:44;28.27;;;15.40;;
7432;SDS011;32233;49.500;7.764;2023-03-01T07:25:11;25.20;;;15.33;;
7432;SDS011;32233;49.500;7.764;2023-03-01T07:27:37;27.17;;;16.07;;
7432;SDS011;32233;49.500;7.764;2023-03-01T07:30:04;25.80;;;15.40;;
7432;SDS011;32233;49.500;7.764;2023-03-01T07:32:31;25.80;;;14.33;;
7432;SDS011;32233;49.500;7.764;2023-03-01T07:34:58;27.67;;;14.90;;
7432;SDS011;32233;49.500;7.764;2023-03-01T07:37:24;27.67;;;14.93;;
7432;SDS011;32233;49.500;7.764;2023-03-01T07:39:51;25.17;;;14.67;;
7432;SDS011;32233;49.500;7.764;2023-03-01T07:42:17;26.13;;;15.53;;
7432;SDS011;32233;49.500;7.764;2023-03-01T07:44:44;25.73;;;15.43;;
7432;SDS011;32233;49.500;7.764;2023-03-01T07:47:10;27.00;;;15.90;;
7432;SDS011;32233;49.500;7.764;2023-03-01T07:49:37;24.03;;;15.57;;
7432;SDS011;32233;49.500;7.764;2023-03-01T07:52:03;26.97;;;15.60;;
7432;SDS011;32233;49.500;7.764;2023-03-01T07:54:30;23.37;;;15.27;;
7432;SDS011;32233;49.500;7.764;2023-03-01T07:56:56;25.33;;;15.20;;
7432;SDS011;32233;49.500;7.764;2023-03-01T07:59:23;25.13;;;14.97;;
7432;SDS011;32233;49.500;7.764;2023-03-01T08:01:55;25.27;;;14.67;;
7432;SDS011;32233;49.500;7.764;2023-03-01T08:04:22;23.27;;;15.37;;
7432;SDS011;32233;49.500;7.764;2023-03-01T08:06:51;23.27;;;14.73;;
7432;SDS011;32233;49.500;7.764;2023-03-01T08:09:17;26.03;;;15.27;;
7432;SDS011;32233;49.500;7.764;2023-03-01T08:11:44;24.10;;;15.80;;
7432;SDS011;32233;49.500;7.764;2023-03-01T08:14:11;22.17;;;14.40;;
7432;SDS011;32233;49.500;7.764;2023-03-01T08:16:37;23.53;;;14.50;;
7432;SDS011;32233;49.500;7.764;2023-03-01T08:19:08;27.73;;;15.50;;
7432;SDS011;32233;49.500;7.764;2023-03-01T08:21:36;21.80;;;14.80;;
7432;SDS011;32233;49.500;7.764;2023-03-01T08:24:03;23.83;;;15.50;;
7432;SDS011;32233;49.500;7.764;2023-03-01T08:26:32;23.57;;;15.50;;
7432;SDS011;32233;49.500;7.764;2023-03-01T08:29:00;23.07;;;14.93;;
7432;SDS011;32233;49.500;7.764;2023-03-01T08:31:38;26.53;;;16.03;;
7432;SDS011;32233;49.500;7.764;2023-03-01T08:34:07;24.37;;;14.83;;
7432;SDS011;32233;49.500;7.764;2023-03-01T08:36:36;21.00;;;14.70;;
7432;SDS011;32233;49.500;7.764;2023-03-01T08:39:06;23.23;;;15.10;;
7432;SDS011;32233;49.500;7.764;2023-03-01T08:41:33;23.77;;;15.60;;
7432;SDS011;32233;49.500;7.764;2023-03-01T08:44:00;23.17;;;15.70;;
7432;SDS011;32233;49.500;7.764;2023-03-01T08:46:27;25.37;;;15.50;;
7432;SDS011;32233;49.500;7.764;2023-03-01T08:48:56;24.40;;;15.70;;
7432;SDS011;32233;49.500;7.764;2023-03-01T08:51:23;22.33;;;15.60;;
7432;SDS011;32233;49.500;7.764;2023-03-01T08:53:50;23.30;;;14.60;;
7432;SDS011;32233;49.500;7.764;2023-03-01T08:56:17;24.23;;;15.87;;
7432;SDS011;32233;49.500;7.764;2023-03-01T08:58:48;23.97;;;15.97;;
7432;SDS011;32233;49.500;7.764;2023-03-01T09:01:16;22.93;;;15.07;;
7432;SDS011;32233;49.500;7.764;2023-03-01T09:03:44;26.83;;;16.50;;
7432;SDS011;32233;49.500;7.764;2023-03-01T09:06:11;22.37;;;15.57;;
7432;SDS011;32233;49.500;7.764;2023-03-01T09:08:41;25.03;;;15.73;;
7432;SDS011;32233;49.500;7.764;2023-03-01T09:11:09;24.37;;;15.83;;
7432;SDS011;32233;49.500;7.764;2023-03-01T09:13:38;23.93;;;15.30;;
7432;SDS011;32233;49.500;7.764;2023-03-01T09:16:07;22.93;;;15.70;;
7432;SDS011;32233;49.500;7.764;2023-03-01T09:18:34;23.63;;;16.30;;
7432;SDS011;32233;49.500;7.764;2023-03-01T09:23:39;23.63;;;15.77;;
7432;SDS011;32233;49.500;7.764;2023-03-01T09:26:10;23.37;;;15.80;;
7432;SDS011;32233;49.500;7.764;2023-03-01T09:28:39;23.37;;;15.73;;
7432;SDS011;32233;49.500;7.764;2023-03-01T09:31:07;24.37;;;16.63;;
7432;SDS011;32233;49.500;7.764;2023-03-01T09:33:33;24.23;;;16.50;;
7432;SDS011;32233;49.500;7.764;2023-03-01T09:36:01;25.13;;;16.37;;
7432;SDS011;32233;49.500;7.764;2023-03-01T09:38:30;23.83;;;16.13;;
7432;SDS011;32233;49.500;7.764;2023-03-01T09:40:57;23.37;;;16.43;;
7432;SDS011;32233;49.500;7.764;2023-03-01T09:43:26;25.20;;;16.73;;
7432;SDS011;32233;49.500;7.764;2023-03-01T09:46:04;23.67;;;15.90;;
7432;SDS011;32233;49.500;7.764;2023-03-01T09:48:33;26.30;;;16.77;;
7432;SDS011;32233;49.500;7.764;2023-03-01T09:51:08;27.30;;;16.20;;
7432;SDS011;32233;49.500;7.764;2023-03-01T09:53:46;24.50;;;16.40;;
7432;SDS011;32233;49.500;7.764;2023-03-01T09:56:15;26.00;;;16.70;;
7432;SDS011;32233;49.500;7.764;2023-03-01T09:58:49;23.17;;;16.30;;
7432;SDS011;32233;49.500;7.764;2023-03-01T10:09:39;23.03;;;16.73;;
7432;SDS011;32233;49.500;7.764;2023-03-01T10:12:10;24.27;;;17.13;;
7432;SDS011;32233;49.500;7.764;2023-03-01T10:15:25;24.50;;;16.60;;
7432;SDS011;32233;49.500;7.764;2023-03-01T10:17:35;24.73;;;17.47;;
7432;SDS011;32233;49.500;7.764;2023-03-01T10:20:21;24.33;;;17.33;;
7432;SDS011;32233;49.500;7.764;2023-03-01T10:22:50;25.57;;;17.90;;
7432;SDS011;32233;49.500;7.764;2023-03-01T10:28:20;23.30;;;17.17;;
7432;SDS011;32233;49.500;7.764;2023-03-01T10:31:13;26.97;;;18.87;;
7432;SDS011;32233;49.500;7.764;2023-03-01T10:33:44;25.40;;;18.30;;
7432;SDS011;32233;49.500;7.764;2023-03-01T10:36:11;25.23;;;18.03;;
7432;SDS011;32233;49.500;7.764;2023-03-01T10:38:51;24.27;;;18.87;;
7432;SDS011;32233;49.500;7.764;2023-03-01T10:41:23;26.07;;;17.73;;
7432;SDS011;32233;49.500;7.764;2023-03-01T10:43:53;25.83;;;18.70;;
7432;SDS011;32233;49.500;7.764;2023-03-01T10:51:41;25.97;;;18.27;;
7432;SDS011;32233;49.500;7.764;2023-03-01T10:54:23;25.40;;;17.50;;
7432;SDS011;32233;49.500;7.764;2023-03-01T10:56:54;26.30;;;17.90;;
7432;SDS011;32233;49.500;7.764;2023-03-01T11:07:28;24.40;;;18.33;;
7432;SDS011;32233;49.500;7.764;2023-03-01T11:09:54;27.90;;;18.57;;
7432;SDS011;32233;49.500;7.764;2023-03-01T11:12:21;23.90;;;17.43;;
7432;SDS011;32233;49.500;7.764;2023-03-01T11:14:49;23.87;;;18.30;;
7432;SDS011;32233;49.500;7.764;2023-03-01T11:17:23;25.27;;;18.50;;
7432;SDS011;32233;49.500;7.764;2023-03-01T11:20:00;24.80;;;17.43;;
7432;SDS011;32233;49.500;7.764;2023-03-01T11:22:46;25.33;;;18.73;;
7432;SDS011;32233;49.500;7.764;2023-03-01T11:25:16;26.93;;;18.73;;
7432;SDS011;32233;49.500;7.764;2023-03-01T11:27:45;25.43;;;18.37;;
7432;SDS011;32233;49.500;7.764;2023-03-01T11:30:18;27.77;;;18.53;;
7432;SDS011;32233;49.500;7.764;2023-03-01T11:35:29;23.87;;;17.77;;
7432;SDS011;32233;49.500;7.764;2023-03-01T11:38:03;28.37;;;19.37;;
7432;SDS011;32233;49.500;7.764;2023-03-01T11:46:12;25.93;;;19.07;;
7432;SDS011;32233;49.500;7.764;2023-03-01T11:49:10;24.40;;;17.97;;
7432;SDS011;32233;49.500;7.764;2023-03-01T12:00:26;23.53;;;18.07;;
7432;SDS011;32233;49.500;7.764;2023-03-01T12:03:13;26.10;;;19.23;;
7432;SDS011;32233;49.500;7.764;2023-03-01T12:08:41;27.03;;;19.50;;
7432;SDS011;32233;49.500;7.764;2023-03-01T12:11:27;23.50;;;17.80;;
7432;SDS011;32233;49.500;7.764;2023-03-01T12:14:01;24.80;;;18.67;;
7432;SDS011;32233;49.500;7.764;2023-03-01T12:16:59;25.90;;;18.60;;
7432;SDS011;32233;49.500;7.764;2023-03-01T12:26:01;25.20;;;18.43;;
7432;SDS011;32233;49.500;7.764;2023-03-01T12:28:40;23.13;;;17.93;;
7432;SDS011;32233;49.500;7.764;2023-03-01T12:31:30;23.33;;;17.67;;
7432;SDS011;32233;49.500;7.764;2023-03-01T12:39:57;22.30;;;17.17;;
7432;SDS011;32233;49.500;7.764;2023-03-01T12:42:47;24.37;;;18.03;;
7432;SDS011;32233;49.500;7.764;2023-03-01T12:48:18;24.03;;;17.67;;
7432;SDS011;32233;49.500;7.764;2023-03-01T12:50:49;26.93;;;19.03;;
7432;SDS011;32233;49.500;7.764;2023-03-01T12:56:27;22.10;;;17.57;;
7432;SDS011;32233;49.500;7.764;2023-03-01T12:58:59;21.40;;;17.53;;
7432;SDS011;32233;49.500;7.764;2023-03-01T13:01:40;23.50;;;17.83;;
7432;SDS011;32233;49.500;7.764;2023-03-01T13:06:56;25.60;;;18.63;;
7432;SDS011;32233;49.500;7.764;2023-03-01T13:17:49;25.57;;;17.63;;
7432;SDS011;32233;49.500;7.764;2023-03-01T13:20:17;22.57;;;16.43;;
7432;SDS011;32233;49.500;7.764;2023-03-01T13:22:47;25.50;;;17.40;;
7432;SDS011;32233;49.500;7.764;2023-03-01T13:25:26;27.67;;;18.57;;
7432;SDS011;32233;49.500;7.764;2023-03-01T13:31:07;25.70;;;17.77;;
7432;SDS011;32233;49.500;7.764;2023-03-01T13:33:39;28.20;;;17.93;;
7432;SDS011;32233;49.500;7.764;2023-03-01T13:36:08;25.97;;;18.23;;
7432;SDS011;32233;49.500;7.764;2023-03-01T13:49:43;23.90;;;17.20;;
7432;SDS011;32233;49.500;7.764;2023-03-01T13:54:52;25.13;;;17.07;;
7432;SDS011;32233;49.500;7.764;2023-03-01T13:57:20;23.63;;;16.90;;
7432;SDS011;32233;49.500;7.764;2023-03-01T13:59:50;29.33;;;17.23;;
7432;SDS011;32233;49.500;7.764;2023-03-01T14:02:17;24.70;;;17.03;;
7432;SDS011;32233;49.500;7.764;2023-03-01T14:04:44;24.90;;;16.73;;
7432;SDS011;32233;49.500;7.764;2023-03-01T14:07:23;25.23;;;16.47;;
7432;SDS011;32233;49.500;7.764;2023-03-01T14:09:51;25.60;;;17.73;;
7432;SDS011;32233;49.500;7.764;2023-03-01T14:15:27;23.73;;;16.00;;
7432;SDS011;32233;49.500;7.764;2023-03-01T14:20:30;23.97;;;15.80;;
7432;SDS011;32233;49.500;7.764;2023-03-01T14:23:02;22.50;;;15.63;;
7432;SDS011;32233;49.500;7.764;2023-03-01T14:25:38;24.27;;;15.87;;
7432;SDS011;32233;49.500;7.764;2023-03-01T14:34:24;23.83;;;15.90;;
7432;SDS011;32233;49.500;7.764;2023-03-01T14:36:51;21.17;;;14.40;;
7432;SDS011;32233;49.500;7.764;2023-03-01T14:39:18;21.07;;;14.80;;
7432;SDS011;32233;49.500;7.764;2023-03-01T14:41:48;22.93;;;15.37;;
7432;SDS011;32233;49.500;7.764;2023-03-01T14:44:19;23.33;;;14.17;;
7432;SDS011;32233;49.500;7.764;2023-03-01T14:46:51;24.17;;;15.33;;
7432;SDS011;32233;49.500;7.764;2023-03-01T14:49:25;22.33;;;14.13;;
7432;SDS011;32233;49.500;7.764;2023-03-01T14:52:03;19.20;;;12.97;;
7432;SDS011;32233;49.500;7.764;2023-03-01T14:54:42;25.23;;;15.70;;
7432;SDS011;32233;49.500;7.764;2023-03-01T14:57:15;20.67;;;14.00;;
7432;SDS011;32233;49.500;7.764;2023-03-01T14:59:57;23.57;;;14.07;;
7432;SDS011;32233;49.500;7.764;2023-03-01T15:02:29;20.33;;;13.27;;
7432;SDS011;32233;49.500;7.764;2023-03-01T15:04:58;19.50;;;12.40;;
7432;SDS011;32233;49.500;7.764;2023-03-01T15:07:29;20.47;;;12.10;;
7432;SDS011;32233;49.500;7.764;2023-03-01T15:09:58;18.43;;;12.43;;
7432;SDS011;32233;49.500;7.764;2023-03-01T15:14:53;18.60;;;11.90;;
7432;SDS011;32233;49.500;7.764;2023-03-01T15:17:30;17.13;;;11.93;;
7432;SDS011;32233;49.500;7.764;2023-03-01T15:20:01;18.00;;;12.70;;
7432;SDS011;32233;49.500;7.764;2023-03-01T15:22:30;16.07;;;11.67;;
7432;SDS011;32233;49.500;7.764;2023-03-01T15:24:57;18.63;;;11.00;;
7432;SDS011;32233;49.500;7.764;2023-03-01T15:27:24;16.17;;;11.23;;
7432;SDS011;32233;49.500;7.764;2023-03-01T15:29:53;20.97;;;11.57;;
7432;SDS011;32233;49.500;7.764;2023-03-01T15:32:29;18.73;;;12.27;;
7432;SDS011;32233;49.500;7.764;2023-03-01T15:35:32;15.93;;;11.33;;
7432;SDS011;32233;49.500;7.764;2023-03-01T15:40:56;18.63;;;11.47;;
7432;SDS011;32233;49.500;7.764;2023-03-01T15:43:43;15.83;;;11.07;;
7432;SDS011;32233;49.500;7.764;2023-03-01T15:46:24;16.77;;;10.93;;
7432;SDS011;32233;49.500;7.764;2023-03-01T15:48:56;15.57;;;10.73;;
7432;SDS011;32233;49.500;7.764;2023-03-01T15:51:28;17.13;;;10.77;;
7432;SDS011;32233;49.500;7.764;2023-03-01T15:53:56;18.50;;;10.83;;
7432;SDS011;32233;49.500;7.764;2023-03-01T15:56:25;15.87;;;11.07;;
7432;SDS011;32233;49.500;7.764;2023-03-01T15:58:52;16.03;;;10.33;;
7432;SDS011;32233;49.500;7.764;2023-03-01T16:01:19;16.40;;;10.67;;
7432;SDS011;32233;49.500;7.764;2023-03-01T16:03:45;15.00;;;10.50;;
7432;SDS011;32233;49.500;7.764;2023-03-01T16:06:12;14.70;;;10.23;;
7432;SDS011;32233;49.500;7.764;2023-03-01T16:08:38;15.77;;;10.50;;
7432;SDS011;32233;49.500;7.764;2023-03-01T16:11:05;15.33;;;10.50;;
7432;SDS011;32233;49.500;7.764;2023-03-01T16:13:42;15.73;;;10.63;;
7432;SDS011;32233;49.500;7.764;2023-03-01T16:16:13;16.00;;;10.10;;
7432;SDS011;32233;49.500;7.764;2023-03-01T16:18:43;15.87;;;10.43;;
7432;SDS011;32233;49.500;7.764;2023-03-01T16:21:11;16.80;;;11.33;;
7432;SDS011;32233;49.500;7.764;2023-03-01T16:23:42;19.47;;;11.37;;
7432;SDS011;32233;49.500;7.764;2023-03-01T16:26:10;13.83;;;10.10;;
7432;SDS011;32233;49.500;7.764;2023-03-01T16:28:36;14.63;;;10.50;;
7432;SDS011;32233;49.500;7.764;2023-03-01T16:31:03;16.20;;;10.00;;
7432;SDS011;32233;49.500;7.764;2023-03-01T16:33:31;16.53;;;10.90;;
7432;SDS011;32233;49.500;7.764;2023-03-01T16:36:05;16.37;;;10.40;;
7432;SDS011;32233;49.500;7.764;2023-03-01T16:38:33;14.93;;;9.90;;
7432;SDS011;32233;49.500;7.764;2023-03-01T16:41:01;13.80;;;10.03;;
7432;SDS011;32233;49.500;7.764;2023-03-01T16:43:27;18.13;;;10.17;;
7432;SDS011;32233;49.500;7.764;2023-03-01T16:45:55;16.67;;;10.60;;
7432;SDS011;32233;49.500;7.764;2023-03-01T16:48:22;16.43;;;10.47;;
7432;SDS011;32233;49.500;7.764;2023-03-01T16:50:55;15.10;;;9.87;;
7432;SDS011;32233;49.500;7.764;2023-03-01T16:53:26;15.07;;;10.50;;
7432;SDS011;32233;49.500;7.764;2023-03-01T16:55:54;14.47;;;10.20;;
7432;SDS011;32233;49.500;7.764;2023-03-01T16:58:22;18.67;;;10.73;;